Schedule Details


Flight Number: CTN375
Departure: El Prat (LEBL) at 10:05
Arrival: Franjo Tudman (LDZA) at 12:20
Route: DALIN?UN870?ADITA?UZ192?STP?UM985?NOSTA?M985?ABN?Z388?CHI?M167?ROTAR?DCT?ABLAT?DCT?ARGOM

Weather Information
LEBL 112300Z 32005KT 9999 FEW025 12/09 Q1019 NOSIG
LDZA 112300Z 25011KT CAVOK 19/10 Q1007 BECMG 24008KT
Schedule Frequency

Route Map